»·PEaware :: AAL650 KLAX-KLAS

AAL650 :: KLAX-KLAS

FLIGHT INFORMATION

Flight Status: Arrived
Operator:
American Airlines
More flights by this operator :: More flights under this callsign
Pilot: Alfredo R. (12181)
Aircraft: BOEING 737-800
(B738)
More flights by this aircraft type
Origin: KLAX Los Angeles Intl
United States
Destination: KLAS McCarran Intl
United States
More flights between these airports :: More routes between these airports
Route: ORCKA3 MISEN KEPEC6
File this flight plan on PilotEdge
Remarks:
Altitude:
(Current/Filed)
27,000ft
Speed:
(Current/Filed)
425kts
Departed: 11-Dec-18 07:35 PM
Arrived: 11-Dec-18 08:31 PM
Distance/Time
Traveled:
205nm/0:55
Distance/Time
To Go:
Arrived

Flight Plot

Page will automatically refresh every two minutes.

Flight plan parsing failed; only flown route is shown


Map Options




Map Legend


Flown Route
Filed Route
Departure Airport
Arrival Airport
Navaid (VOR, NDB)
Fix

Horizontal Profiles

Position Reports

Time Latitude Longitude Heading Altitude Ground
Speed
11-Dec-18 19:06 33.940650 -118.403799 263 119ft 0kts
11-Dec-18 19:07 33.940650 -118.403799 263 119ft 0kts
11-Dec-18 19:08 33.940650 -118.403799 263 119ft 0kts
11-Dec-18 19:09 33.940650 -118.403799 263 119ft 0kts
11-Dec-18 19:10 33.940650 -118.403799 263 119ft 0kts
11-Dec-18 19:11 33.940650 -118.403799 263 119ft 0kts
11-Dec-18 19:12 33.940650 -118.403799 263 119ft 0kts
11-Dec-18 19:13 33.940650 -118.403798 263 119ft 0kts
11-Dec-18 19:14 33.940650 -118.403798 263 119ft 0kts
11-Dec-18 19:15 33.940650 -118.403798 263 119ft 0kts
11-Dec-18 19:16 33.940650 -118.403798 263 119ft 0kts
11-Dec-18 19:17 33.940713 -118.403266 241 119ft 1kts
11-Dec-18 19:18 33.941234 -118.403223 173 119ft 2kts
11-Dec-18 19:19 33.941071 -118.403204 174 119ft 7kts
11-Dec-18 19:20 33.940252 -118.403097 173 119ft 0kts
11-Dec-18 19:22 33.940252 -118.403097 173 119ft 0kts
11-Dec-18 19:23 33.940252 -118.403097 173 119ft 0kts
11-Dec-18 19:24 33.940191 -118.403088 172 119ft 2kts
11-Dec-18 19:25 33.939417 -118.401794 84 119ft 8kts
11-Dec-18 19:26 33.939771 -118.398392 83 113ft 9kts
11-Dec-18 19:27 33.939683 -118.395251 151 109ft 7kts
11-Dec-18 19:28 33.939644 -118.391456 83 105ft 15kts
11-Dec-18 19:29 33.940172 -118.386319 82 103ft 14kts
11-Dec-18 19:30 33.940686 -118.381383 83 99ft 11kts
11-Dec-18 19:31 33.940686 -118.380684 114 99ft 0kts
11-Dec-18 19:32 33.940686 -118.380684 114 99ft 0kts
11-Dec-18 19:33 33.939753 -118.380998 261 99ft 10kts
11-Dec-18 19:34 33.939589 -118.382598 263 99ft 0kts
11-Dec-18 19:35 33.938063 -118.397515 263 111ft 135kts
11-Dec-18 19:36 33.931284 -118.449039 249 1713ft 188kts
11-Dec-18 19:37 33.909061 -118.514526 248 4310ft 218kts
11-Dec-18 19:38 33.885243 -118.592243 248 5012ft 268kts
11-Dec-18 19:39 33.828801 -118.635659 158 7066ft 283kts
11-Dec-18 19:40 33.802451 -118.563127 68 9964ft 278kts
11-Dec-18 19:41 33.859359 -118.500158 23 11951ft 322kts
11-Dec-18 19:42 33.930880 -118.441606 53 14934ft 327kts
11-Dec-18 19:42 33.970570 -118.366230 55 17229ft 336kts
11-Dec-18 19:44 34.031725 -118.258237 53 20145ft 342kts
11-Dec-18 19:45 34.084962 -118.164291 52 22616ft 347kts
11-Dec-18 19:45 34.130114 -118.084509 52 24547ft 351kts
11-Dec-18 19:46 34.185253 -117.986777 52 26502ft 356kts
11-Dec-18 19:48 34.251475 -117.869049 52 27089ft 375kts
11-Dec-18 19:48 34.300713 -117.781097 52 27089ft 384kts
11-Dec-18 19:49 34.359799 -117.675888 51 27126ft 378kts
11-Dec-18 19:50 34.420732 -117.574070 51 27169ft 369kts
11-Dec-18 19:51 34.479757 -117.475135 51 27177ft 368kts
11-Dec-18 19:52 34.539048 -117.375504 51 27198ft 374kts
11-Dec-18 19:53 34.598747 -117.274812 51 27208ft 368kts
11-Dec-18 19:54 34.658454 -117.173747 52 27200ft 370kts
11-Dec-18 19:55 34.717205 -117.073955 52 27202ft 369kts
11-Dec-18 19:56 34.776914 -116.972159 52 27183ft 372kts
11-Dec-18 19:57 34.836571 -116.870344 52 27173ft 385kts
11-Dec-18 19:58 34.895911 -116.768667 52 26402ft 367kts
11-Dec-18 19:59 34.954986 -116.665940 53 25559ft 372kts
11-Dec-18 20:00 35.013789 -116.561623 53 24707ft 372kts
11-Dec-18 20:01 35.071825 -116.458550 53 24179ft 368kts
11-Dec-18 20:02 35.135189 -116.360665 43 24186ft 370kts
11-Dec-18 20:03 35.206697 -116.273071 44 24194ft 369kts
11-Dec-18 20:04 35.277922 -116.183778 45 22808ft 356kts
11-Dec-18 20:05 35.346299 -116.097650 44 21320ft 354kts
11-Dec-18 20:06 35.414116 -116.012050 44 19826ft 351kts
11-Dec-18 20:07 35.481381 -115.926917 45 18333ft 348kts
11-Dec-18 20:08 35.547965 -115.842429 45 16832ft 342kts
11-Dec-18 20:09 35.612931 -115.759786 45 15338ft 336kts
11-Dec-18 20:10 35.676970 -115.678116 45 13837ft 330kts
11-Dec-18 20:11 35.738405 -115.600412 38 13036ft 302kts
11-Dec-18 20:12 35.816869 -115.572663 1 13037ft 301kts
11-Dec-18 20:13 35.899986 -115.567712 1 13036ft 301kts
11-Dec-18 20:14 35.974105 -115.527659 47 12576ft 304kts
11-Dec-18 20:15 36.011920 -115.435838 67 11694ft 301kts
11-Dec-18 20:16 36.029650 -115.342160 91 10830ft 287kts
11-Dec-18 20:17 36.027416 -115.245228 91 9863ft 283kts
11-Dec-18 20:18 36.025125 -115.150374 91 8869ft 276kts
11-Dec-18 20:19 36.023080 -115.060780 91 7887ft 254kts
11-Dec-18 20:20 36.021612 -114.978623 91 6914ft 237kts
11-Dec-18 20:21 36.020492 -114.901703 91 5940ft 221kts
11-Dec-18 20:22 36.019189 -114.829813 86 5022ft 205kts
11-Dec-18 20:23 36.060891 -114.806627 341 5009ft 191kts
11-Dec-18 20:24 36.076421 -114.863271 271 5025ft 189kts
11-Dec-18 20:25 36.076304 -114.927791 263 4555ft 189kts
11-Dec-18 20:26 36.073665 -114.989764 270 4027ft 168kts
11-Dec-18 20:27 36.073642 -115.044711 270 3342ft 149kts
11-Dec-18 20:28 36.073716 -115.094571 271 2524ft 145kts
11-Dec-18 20:29 36.073693 -115.139779 269 2084ft 60kts
11-Dec-18 20:30 36.074605 -115.145750 296 2102ft 0kts
11-Dec-18 20:31 36.075474 -115.146550 354 2104ft 8kts
11-Dec-18 20:32 36.077663 -115.145528 94 2098ft 13kts
11-Dec-18 20:33 36.077639 -115.141795 43 2086ft 8kts
11-Dec-18 20:34 36.079551 -115.141131 58 2080ft 6kts
11-Dec-18 20:35 36.079886 -115.140452 59 2076ft 0kts
11-Dec-18 20:36 36.079889 -115.140446 59 2076ft 0kts
11-Dec-18 20:37 36.079889 -115.140446 59 2076ft 0kts
11-Dec-18 20:38 36.079889 -115.140446 59 2076ft 0kts
11-Dec-18 20:39 36.079889 -115.140446 59 2076ft 0kts
11-Dec-18 20:40 36.079889 -115.140446 59 2076ft 0kts

Navigation Log

Ident Type
Flight plan parsing failed, navigation log unavailable